sensor_id;sensor_type;location;lat;lon;timestamp;pressure;altitude;pressure_sealevel;temperature;humidity
9717;BME280;4897;43.570;27.832;2023-03-14T00:02:01;99457.16;;;1.40;100.00
9717;BME280;4897;43.570;27.832;2023-03-14T00:04:28;99495.88;;;1.78;100.00
9717;BME280;4897;43.570;27.832;2023-03-14T00:06:55;99478.09;;;1.43;100.00
9717;BME280;4897;43.570;27.832;2023-03-14T00:09:22;99490.38;;;1.44;100.00
9717;BME280;4897;43.570;27.832;2023-03-14T00:11:50;99478.81;;;1.46;100.00
9717;BME280;4897;43.570;27.832;2023-03-14T00:14:17;99481.19;;;1.32;100.00
9717;BME280;4897;43.570;27.832;2023-03-14T00:16:45;99451.81;;;1.21;100.00
9717;BME280;4897;43.570;27.832;2023-03-14T00:19:12;99471.53;;;1.33;100.00
9717;BME280;4897;43.570;27.832;2023-03-14T00:21:39;99488.38;;;1.29;100.00
9717;BME280;4897;43.570;27.832;2023-03-14T00:24:07;99455.84;;;1.30;100.00
9717;BME280;4897;43.570;27.832;2023-03-14T00:26:34;99452.03;;;1.37;100.00
9717;BME280;4897;43.570;27.832;2023-03-14T00:29:03;99455.78;;;1.51;100.00
9717;BME280;4897;43.570;27.832;2023-03-14T00:31:29;99452.19;;;1.52;100.00
9717;BME280;4897;43.570;27.832;2023-03-14T00:33:56;99439.28;;;1.67;100.00
9717;BME280;4897;43.570;27.832;2023-03-14T00:36:23;99458.06;;;1.79;100.00
9717;BME280;4897;43.570;27.832;2023-03-14T00:38:51;99457.13;;;1.80;100.00
9717;BME280;4897;43.570;27.832;2023-03-14T00:41:19;99455.94;;;1.87;100.00
9717;BME280;4897;43.570;27.832;2023-03-14T00:43:47;99446.56;;;1.80;100.00
9717;BME280;4897;43.570;27.832;2023-03-14T00:46:16;99407.22;;;1.57;100.00
9717;BME280;4897;43.570;27.832;2023-03-14T00:48:44;99444.59;;;1.85;100.00
9717;BME280;4897;43.570;27.832;2023-03-14T00:51:11;99441.09;;;1.85;100.00
9717;BME280;4897;43.570;27.832;2023-03-14T00:53:39;99451.16;;;1.95;100.00
9717;BME280;4897;43.570;27.832;2023-03-14T00:56:08;99435.31;;;1.77;100.00
9717;BME280;4897;43.570;27.832;2023-03-14T00:58:36;99445.38;;;1.87;100.00
9717;BME280;4897;43.570;27.832;2023-03-14T01:01:06;99442.88;;;1.84;100.00
9717;BME280;4897;43.570;27.832;2023-03-14T01:03:34;99449.00;;;1.85;100.00
9717;BME280;4897;43.570;27.832;2023-03-14T01:06:10;99406.66;;;1.69;100.00
9717;BME280;4897;43.570;27.832;2023-03-14T01:08:37;99448.16;;;1.84;100.00
9717;BME280;4897;43.570;27.832;2023-03-14T01:11:08;99454.34;;;1.83;100.00
9717;BME280;4897;43.570;27.832;2023-03-14T01:13:37;99458.97;;;1.78;100.00
9717;BME280;4897;43.570;27.832;2023-03-14T01:16:05;99436.38;;;1.73;100.00
9717;BME280;4897;43.570;27.832;2023-03-14T01:18:34;99453.41;;;1.84;100.00
9717;BME280;4897;43.570;27.832;2023-03-14T01:21:01;99421.03;;;1.62;100.00
9717;BME280;4897;43.570;27.832;2023-03-14T01:23:28;99435.22;;;1.59;100.00
9717;BME280;4897;43.570;27.832;2023-03-14T01:25:55;99443.00;;;1.42;100.00
9717;BME280;4897;43.570;27.832;2023-03-14T01:28:22;99434.91;;;1.27;100.00
9717;BME280;4897;43.570;27.832;2023-03-14T01:30:49;99431.09;;;1.14;100.00
9717;BME280;4897;43.570;27.832;2023-03-14T01:33:16;99439.56;;;1.20;100.00
9717;BME280;4897;43.570;27.832;2023-03-14T01:35:44;99430.03;;;1.18;100.00
9717;BME280;4897;43.570;27.832;2023-03-14T01:38:11;99426.88;;;1.10;100.00
9717;BME280;4897;43.570;27.832;2023-03-14T01:40:42;99413.19;;;1.02;100.00
9717;BME280;4897;43.570;27.832;2023-03-14T01:43:14;99448.03;;;1.07;100.00
9717;BME280;4897;43.570;27.832;2023-03-14T01:48:59;99429.09;;;0.99;100.00
9717;BME280;4897;43.570;27.832;2023-03-14T01:51:33;99422.38;;;0.92;100.00
9717;BME280;4897;43.570;27.832;2023-03-14T01:54:09;99421.78;;;0.85;100.00
9717;BME280;4897;43.570;27.832;2023-03-14T01:56:37;99419.69;;;0.71;100.00
9717;BME280;4897;43.570;27.832;2023-03-14T01:59:07;99429.50;;;0.68;100.00
9717;BME280;4897;43.570;27.832;2023-03-14T02:01:35;99428.09;;;0.59;100.00
9717;BME280;4897;43.570;27.832;2023-03-14T02:04:05;99431.66;;;0.58;100.00
9717;BME280;4897;43.570;27.832;2023-03-14T02:06:40;99433.44;;;0.58;100.00
9717;BME280;4897;43.570;27.832;2023-03-14T02:09:09;99423.41;;;0.46;100.00
9717;BME280;4897;43.570;27.832;2023-03-14T02:11:35;99443.19;;;0.54;100.00
9717;BME280;4897;43.570;27.832;2023-03-14T02:14:03;99449.63;;;0.69;100.00
9717;BME280;4897;43.570;27.832;2023-03-14T02:16:31;99446.03;;;0.71;100.00
9717;BME280;4897;43.570;27.832;2023-03-14T02:18:58;99426.34;;;0.60;100.00
9717;BME280;4897;43.570;27.832;2023-03-14T02:21:37;99443.53;;;0.47;100.00
9717;BME280;4897;43.570;27.832;2023-03-14T02:24:14;99437.22;;;0.29;100.00
9717;BME280;4897;43.570;27.832;2023-03-14T02:27:02;99430.47;;;0.22;100.00
9717;BME280;4897;43.570;27.832;2023-03-14T02:29:30;99421.66;;;0.23;100.00
9717;BME280;4897;43.570;27.832;2023-03-14T02:31:59;99435.50;;;0.28;100.00
9717;BME280;4897;43.570;27.832;2023-03-14T02:34:26;99434.69;;;0.26;100.00
9717;BME280;4897;43.570;27.832;2023-03-14T02:36:53;99413.22;;;0.15;100.00
9717;BME280;4897;43.570;27.832;2023-03-14T02:39:25;99423.47;;;-0.01;100.00
9717;BME280;4897;43.570;27.832;2023-03-14T02:41:54;99437.25;;;0.06;100.00
9717;BME280;4897;43.570;27.832;2023-03-14T02:44:22;99425.34;;;-0.04;100.00
9717;BME280;4897;43.570;27.832;2023-03-14T02:46:49;99420.69;;;0.04;100.00
9717;BME280;4897;43.570;27.832;2023-03-14T02:49:16;99426.81;;;0.26;100.00
9717;BME280;4897;43.570;27.832;2023-03-14T02:51:45;99425.41;;;0.39;100.00
9717;BME280;4897;43.570;27.832;2023-03-14T02:54:12;99404.28;;;0.19;100.00
9717;BME280;4897;43.570;27.832;2023-03-14T02:56:41;99422.75;;;0.18;100.00
9717;BME280;4897;43.570;27.832;2023-03-14T02:59:07;99433.97;;;0.44;100.00
9717;BME280;4897;43.570;27.832;2023-03-14T03:01:36;99418.00;;;0.49;100.00
9717;BME280;4897;43.570;27.832;2023-03-14T03:04:03;99392.81;;;0.43;100.00
9717;BME280;4897;43.570;27.832;2023-03-14T03:06:30;99413.31;;;0.35;100.00
9717;BME280;4897;43.570;27.832;2023-03-14T03:08:57;99427.91;;;0.42;100.00
9717;BME280;4897;43.570;27.832;2023-03-14T03:11:24;99413.84;;;0.43;100.00
9717;BME280;4897;43.570;27.832;2023-03-14T03:13:51;99417.38;;;0.42;100.00
9717;BME280;4897;43.570;27.832;2023-03-14T03:16:18;99414.75;;;0.42;100.00
9717;BME280;4897;43.570;27.832;2023-03-14T03:18:46;99404.78;;;0.50;100.00
9717;BME280;4897;43.570;27.832;2023-03-14T03:21:13;99411.53;;;0.57;100.00
9717;BME280;4897;43.570;27.832;2023-03-14T03:23:41;99409.19;;;0.71;100.00
9717;BME280;4897;43.570;27.832;2023-03-14T03:26:09;99434.50;;;0.74;100.00
9717;BME280;4897;43.570;27.832;2023-03-14T03:28:36;99410.50;;;0.81;100.00
9717;BME280;4897;43.570;27.832;2023-03-14T03:31:07;99379.94;;;0.57;100.00
9717;BME280;4897;43.570;27.832;2023-03-14T03:33:34;99398.88;;;0.45;100.00
9717;BME280;4897;43.570;27.832;2023-03-14T03:36:04;99401.19;;;0.31;100.00
9717;BME280;4897;43.570;27.832;2023-03-14T03:38:31;99411.59;;;0.34;100.00
9717;BME280;4897;43.570;27.832;2023-03-14T03:40:57;99412.97;;;0.21;100.00
9717;BME280;4897;43.570;27.832;2023-03-14T03:43:24;99412.41;;;0.13;100.00
9717;BME280;4897;43.570;27.832;2023-03-14T03:45:51;99421.91;;;0.17;100.00
9717;BME280;4897;43.570;27.832;2023-03-14T03:48:18;99409.69;;;0.16;100.00
9717;BME280;4897;43.570;27.832;2023-03-14T03:50:45;99406.50;;;0.08;100.00
9717;BME280;4897;43.570;27.832;2023-03-14T03:53:13;99392.91;;;-0.03;100.00
9717;BME280;4897;43.570;27.832;2023-03-14T03:55:41;99400.09;;;-0.08;100.00
9717;BME280;4897;43.570;27.832;2023-03-14T03:58:08;99407.59;;;-0.21;100.00
9717;BME280;4897;43.570;27.832;2023-03-14T04:00:35;99441.16;;;-0.27;100.00
9717;BME280;4897;43.570;27.832;2023-03-14T04:03:02;99424.78;;;-0.35;100.00
9717;BME280;4897;43.570;27.832;2023-03-14T04:05:29;99317.66;;;-0.97;100.00
9717;BME280;4897;43.570;27.832;2023-03-14T04:07:56;99407.72;;;-0.47;100.00
9717;BME280;4897;43.570;27.832;2023-03-14T04:10:24;99416.63;;;-0.51;100.00
9717;BME280;4897;43.570;27.832;2023-03-14T04:12:51;99413.13;;;-0.51;100.00
9717;BME280;4897;43.570;27.832;2023-03-14T04:15:18;99397.69;;;-0.60;100.00
9717;BME280;4897;43.570;27.832;2023-03-14T04:17:44;99413.84;;;-0.46;100.00
9717;BME280;4897;43.570;27.832;2023-03-14T04:20:12;99395.66;;;-0.52;100.00
9717;BME280;4897;43.570;27.832;2023-03-14T04:22:39;99393.13;;;-0.55;100.00
9717;BME280;4897;43.570;27.832;2023-03-14T04:25:07;99401.13;;;-0.58;100.00
9717;BME280;4897;43.570;27.832;2023-03-14T04:27:35;99404.34;;;-0.50;100.00
9717;BME280;4897;43.570;27.832;2023-03-14T04:30:03;99397.84;;;-0.40;100.00
9717;BME280;4897;43.570;27.832;2023-03-14T04:32:30;99386.69;;;-0.47;100.00
9717;BME280;4897;43.570;27.832;2023-03-14T04:34:56;99413.47;;;-0.37;100.00
9717;BME280;4897;43.570;27.832;2023-03-14T04:37:23;99393.38;;;-0.15;100.00
9717;BME280;4897;43.570;27.832;2023-03-14T04:39:50;99400.16;;;-0.10;100.00
9717;BME280;4897;43.570;27.832;2023-03-14T04:42:17;99403.19;;;0.03;100.00
9717;BME280;4897;43.570;27.832;2023-03-14T04:44:45;99396.28;;;0.22;100.00
9717;BME280;4897;43.570;27.832;2023-03-14T04:47:14;99396.31;;;0.44;100.00
9717;BME280;4897;43.570;27.832;2023-03-14T04:49:41;99370.84;;;0.44;100.00
9717;BME280;4897;43.570;27.832;2023-03-14T04:52:08;99385.09;;;0.60;100.00
9717;BME280;4897;43.570;27.832;2023-03-14T04:54:35;99369.69;;;0.51;100.00
9717;BME280;4897;43.570;27.832;2023-03-14T04:57:02;99389.44;;;0.61;100.00
9717;BME280;4897;43.570;27.832;2023-03-14T04:59:29;99370.22;;;0.59;100.00
9717;BME280;4897;43.570;27.832;2023-03-14T05:01:57;99386.81;;;0.81;100.00
9717;BME280;4897;43.570;27.832;2023-03-14T05:04:24;99385.78;;;1.06;100.00
9717;BME280;4897;43.570;27.832;2023-03-14T05:06:51;99361.06;;;0.90;100.00
9717;BME280;4897;43.570;27.832;2023-03-14T05:09:18;99389.34;;;1.25;100.00
9717;BME280;4897;43.570;27.832;2023-03-14T05:11:44;99373.28;;;1.31;100.00
9717;BME280;4897;43.570;27.832;2023-03-14T05:14:11;99381.34;;;1.46;100.00
9717;BME280;4897;43.570;27.832;2023-03-14T05:16:38;99348.09;;;1.44;100.00
9717;BME280;4897;43.570;27.832;2023-03-14T05:19:06;99393.84;;;1.80;100.00
9717;BME280;4897;43.570;27.832;2023-03-14T05:21:33;99387.31;;;1.89;100.00
9717;BME280;4897;43.570;27.832;2023-03-14T05:24:00;99360.84;;;1.90;100.00
9717;BME280;4897;43.570;27.832;2023-03-14T05:26:27;99380.09;;;2.11;100.00
9717;BME280;4897;43.570;27.832;2023-03-14T05:28:54;99386.41;;;2.25;100.00
9717;BME280;4897;43.570;27.832;2023-03-14T05:31:21;99386.63;;;2.39;100.00
9717;BME280;4897;43.570;27.832;2023-03-14T05:33:48;99343.94;;;2.31;100.00
9717;BME280;4897;43.570;27.832;2023-03-14T05:36:16;99369.13;;;2.56;100.00
9717;BME280;4897;43.570;27.832;2023-03-14T05:38:43;99383.91;;;2.77;100.00
9717;BME280;4897;43.570;27.832;2023-03-14T05:41:10;99373.59;;;2.89;100.00
9717;BME280;4897;43.570;27.832;2023-03-14T05:43:37;99369.44;;;3.01;100.00
9717;BME280;4897;43.570;27.832;2023-03-14T05:46:05;99362.63;;;3.14;100.00
9717;BME280;4897;43.570;27.832;2023-03-14T05:48:32;99373.94;;;3.33;100.00
9717;BME280;4897;43.570;27.832;2023-03-14T05:50:59;99367.53;;;3.54;100.00
9717;BME280;4897;43.570;27.832;2023-03-14T05:53:27;99365.28;;;3.79;100.00
9717;BME280;4897;43.570;27.832;2023-03-14T05:55:56;99364.94;;;3.85;100.00
9717;BME280;4897;43.570;27.832;2023-03-14T05:58:23;99370.00;;;4.05;100.00
9717;BME280;4897;43.570;27.832;2023-03-14T06:00:50;99371.19;;;4.16;100.00
9717;BME280;4897;43.570;27.832;2023-03-14T06:03:17;99375.78;;;4.28;100.00
9717;BME280;4897;43.570;27.832;2023-03-14T06:05:44;99350.88;;;4.32;100.00
9717;BME280;4897;43.570;27.832;2023-03-14T06:08:11;99355.13;;;4.50;100.00
9717;BME280;4897;43.570;27.832;2023-03-14T06:10:39;99357.16;;;4.60;100.00
9717;BME280;4897;43.570;27.832;2023-03-14T06:13:07;99367.94;;;4.87;100.00
9717;BME280;4897;43.570;27.832;2023-03-14T06:15:34;99350.16;;;4.89;100.00
9717;BME280;4897;43.570;27.832;2023-03-14T06:18:02;99371.22;;;5.06;100.00
9717;BME280;4897;43.570;27.832;2023-03-14T06:20:29;99369.25;;;5.24;100.00
9717;BME280;4897;43.570;27.832;2023-03-14T06:22:56;99350.31;;;5.16;100.00
9717;BME280;4897;43.570;27.832;2023-03-14T06:25:23;99354.06;;;5.27;100.00
9717;BME280;4897;43.570;27.832;2023-03-14T06:27:51;99359.75;;;5.35;100.00
9717;BME280;4897;43.570;27.832;2023-03-14T06:30:18;99292.66;;;5.05;100.00
9717;BME280;4897;43.570;27.832;2023-03-14T06:32:45;99340.25;;;5.50;100.00
9717;BME280;4897;43.570;27.832;2023-03-14T06:35:12;99356.44;;;5.60;100.00
9717;BME280;4897;43.570;27.832;2023-03-14T06:37:39;99348.09;;;5.80;100.00
9717;BME280;4897;43.570;27.832;2023-03-14T06:40:07;99349.81;;;5.81;100.00
9717;BME280;4897;43.570;27.832;2023-03-14T06:42:34;99338.75;;;5.89;100.00
9717;BME280;4897;43.570;27.832;2023-03-14T06:45:04;99336.56;;;5.95;100.00
9717;BME280;4897;43.570;27.832;2023-03-14T06:47:31;99311.53;;;5.99;100.00
9717;BME280;4897;43.570;27.832;2023-03-14T06:49:58;99332.03;;;6.24;100.00
9717;BME280;4897;43.570;27.832;2023-03-14T06:52:25;99310.59;;;6.27;100.00
9717;BME280;4897;43.570;27.832;2023-03-14T06:54:51;99331.31;;;6.49;100.00
9717;BME280;4897;43.570;27.832;2023-03-14T06:57:18;99323.41;;;6.61;100.00
9717;BME280;4897;43.570;27.832;2023-03-14T06:59:46;99339.69;;;6.69;100.00
9717;BME280;4897;43.570;27.832;2023-03-14T07:02:14;99308.72;;;6.68;100.00
9717;BME280;4897;43.570;27.832;2023-03-14T07:04:41;99301.97;;;6.89;100.00
9717;BME280;4897;43.570;27.832;2023-03-14T07:07:08;99291.03;;;6.94;100.00
9717;BME280;4897;43.570;27.832;2023-03-14T07:09:35;99295.09;;;7.12;100.00
9717;BME280;4897;43.570;27.832;2023-03-14T07:12:03;99304.69;;;7.27;100.00
9717;BME280;4897;43.570;27.832;2023-03-14T07:14:30;99290.63;;;7.38;100.00
9717;BME280;4897;43.570;27.832;2023-03-14T07:16:57;99292.44;;;7.50;100.00
9717;BME280;4897;43.570;27.832;2023-03-14T07:19:25;99300.19;;;7.65;100.00
9717;BME280;4897;43.570;27.832;2023-03-14T07:21:52;99282.72;;;7.74;100.00
9717;BME280;4897;43.570;27.832;2023-03-14T07:24:19;99289.69;;;8.00;100.00
9717;BME280;4897;43.570;27.832;2023-03-14T07:26:46;99289.69;;;8.00;100.00
9717;BME280;4897;43.570;27.832;2023-03-14T07:29:13;99286.03;;;8.01;100.00
9717;BME280;4897;43.570;27.832;2023-03-14T07:31:40;99292.03;;;8.04;100.00
9717;BME280;4897;43.570;27.832;2023-03-14T07:34:07;99276.91;;;8.05;100.00
9717;BME280;4897;43.570;27.832;2023-03-14T07:36:36;99082.66;;;6.96;100.00
9717;BME280;4897;43.570;27.832;2023-03-14T07:39:03;99294.06;;;8.37;100.00
9717;BME280;4897;43.570;27.832;2023-03-14T07:41:32;99278.09;;;8.25;100.00
9717;BME280;4897;43.570;27.832;2023-03-14T07:43:59;99288.72;;;8.37;98.29
9717;BME280;4897;43.570;27.832;2023-03-14T07:46:26;99235.53;;;8.12;97.26
9717;BME280;4897;43.570;27.832;2023-03-14T07:48:53;99182.63;;;7.84;100.00
9717;BME280;4897;43.570;27.832;2023-03-14T07:51:20;99278.41;;;8.56;100.00
9717;BME280;4897;43.570;27.832;2023-03-14T07:53:48;99264.28;;;8.67;100.00
9717;BME280;4897;43.570;27.832;2023-03-14T07:56:15;99276.56;;;8.80;96.42
9717;BME280;4897;43.570;27.832;2023-03-14T07:58:41;99264.22;;;8.79;95.17
9717;BME280;4897;43.570;27.832;2023-03-14T08:01:09;99259.66;;;8.93;100.00
9717;BME280;4897;43.570;27.832;2023-03-14T08:03:36;99249.25;;;9.01;100.00
9717;BME280;4897;43.570;27.832;2023-03-14T08:06:03;99244.38;;;9.06;99.95
9717;BME280;4897;43.570;27.832;2023-03-14T08:08:30;99249.50;;;9.31;95.37
9717;BME280;4897;43.570;27.832;2023-03-14T08:11:03;99246.97;;;9.29;87.47
9717;BME280;4897;43.570;27.832;2023-03-14T08:13:30;99251.97;;;9.45;85.41
9717;BME280;4897;43.570;27.832;2023-03-14T08:15:57;99241.41;;;9.54;91.95
9717;BME280;4897;43.570;27.832;2023-03-14T08:18:24;99224.31;;;9.57;77.53
9717;BME280;4897;43.570;27.832;2023-03-14T08:20:51;99238.34;;;9.81;77.45
9717;BME280;4897;43.570;27.832;2023-03-14T08:23:19;99234.56;;;9.95;75.46
9717;BME280;4897;43.570;27.832;2023-03-14T08:25:48;99230.56;;;9.89;67.51
9717;BME280;4897;43.570;27.832;2023-03-14T08:28:17;99219.88;;;9.89;69.21
9717;BME280;4897;43.570;27.832;2023-03-14T08:30:44;99211.13;;;9.98;74.92
9717;BME280;4897;43.570;27.832;2023-03-14T08:33:11;99219.38;;;10.17;70.24
9717;BME280;4897;43.570;27.832;2023-03-14T08:35:38;99213.59;;;10.85;66.91
9717;BME280;4897;43.570;27.832;2023-03-14T08:38:05;99213.25;;;12.68;57.30
9717;BME280;4897;43.570;27.832;2023-03-14T08:40:32;99204.25;;;14.43;47.81
9717;BME280;4897;43.570;27.832;2023-03-14T08:42:59;99176.69;;;15.61;44.55
9717;BME280;4897;43.570;27.832;2023-03-14T08:45:28;99193.94;;;16.18;40.81
9717;BME280;4897;43.570;27.832;2023-03-14T08:47:55;99155.72;;;16.47;41.05
9717;BME280;4897;43.570;27.832;2023-03-14T08:50:22;99143.63;;;17.46;40.14
9717;BME280;4897;43.570;27.832;2023-03-14T08:52:49;99172.22;;;17.95;38.60
9717;BME280;4897;43.570;27.832;2023-03-14T08:55:16;99183.47;;;17.68;37.54
9717;BME280;4897;43.570;27.832;2023-03-14T08:57:43;99157.44;;;18.82;34.57
9717;BME280;4897;43.570;27.832;2023-03-14T09:00:11;99159.94;;;19.06;33.80
9717;BME280;4897;43.570;27.832;2023-03-14T09:02:42;99172.38;;;19.38;34.24
9717;BME280;4897;43.570;27.832;2023-03-14T09:05:09;99146.16;;;17.94;35.10
9717;BME280;4897;43.570;27.832;2023-03-14T09:07:37;99169.97;;;18.29;34.31
9717;BME280;4897;43.570;27.832;2023-03-14T09:10:05;99172.69;;;18.60;32.89
9717;BME280;4897;43.570;27.832;2023-03-14T09:12:31;99165.06;;;19.38;33.45
9717;BME280;4897;43.570;27.832;2023-03-14T09:14:59;99163.22;;;20.18;32.75
9717;BME280;4897;43.570;27.832;2023-03-14T09:17:26;99166.75;;;19.02;29.84
9717;BME280;4897;43.570;27.832;2023-03-14T09:19:54;99170.06;;;18.52;31.46
9717;BME280;4897;43.570;27.832;2023-03-14T09:22:21;99166.75;;;18.03;30.26
9717;BME280;4897;43.570;27.832;2023-03-14T09:24:48;99158.50;;;17.58;30.72
9717;BME280;4897;43.570;27.832;2023-03-14T09:27:15;99167.84;;;18.25;30.87
9717;BME280;4897;43.570;27.832;2023-03-14T09:29:42;99166.03;;;18.71;31.74
9717;BME280;4897;43.570;27.832;2023-03-14T09:32:09;99156.44;;;19.93;29.05
9717;BME280;4897;43.570;27.832;2023-03-14T09:34:36;99155.00;;;18.50;29.93
9717;BME280;4897;43.570;27.832;2023-03-14T09:37:04;99145.75;;;18.67;28.27
9717;BME280;4897;43.570;27.832;2023-03-14T09:39:31;99138.94;;;18.17;27.79
9717;BME280;4897;43.570;27.832;2023-03-14T09:42:01;99141.88;;;17.69;28.89
9717;BME280;4897;43.570;27.832;2023-03-14T09:44:32;99119.75;;;17.19;29.30
9717;BME280;4897;43.570;27.832;2023-03-14T09:47:05;99131.69;;;18.63;29.12
9717;BME280;4897;43.570;27.832;2023-03-14T09:49:34;99129.44;;;19.70;28.21
9717;BME280;4897;43.570;27.832;2023-03-14T09:52:07;99127.53;;;19.12;26.78
9717;BME280;4897;43.570;27.832;2023-03-14T09:54:40;99114.84;;;19.42;26.54
9717;BME280;4897;43.570;27.832;2023-03-14T09:57:13;99119.06;;;20.10;26.14
9717;BME280;4897;43.570;27.832;2023-03-14T09:59:42;99125.88;;;19.55;27.23
9717;BME280;4897;43.570;27.832;2023-03-14T10:02:17;99112.38;;;20.90;25.53
9717;BME280;4897;43.570;27.832;2023-03-14T10:04:45;99119.88;;;19.74;26.91
9717;BME280;4897;43.570;27.832;2023-03-14T10:07:15;99114.41;;;20.04;27.12
9717;BME280;4897;43.570;27.832;2023-03-14T10:09:45;99105.03;;;21.12;26.85
9717;BME280;4897;43.570;27.832;2023-03-14T10:12:14;99114.53;;;21.22;25.60
9717;BME280;4897;43.570;27.832;2023-03-14T10:14:47;99098.38;;;21.14;25.86
9717;BME280;4897;43.570;27.832;2023-03-14T10:17:15;99094.38;;;20.89;26.66
9717;BME280;4897;43.570;27.832;2023-03-14T10:19:54;99087.63;;;20.57;25.41
9717;BME280;4897;43.570;27.832;2023-03-14T10:22:24;99089.56;;;21.12;25.49
9717;BME280;4897;43.570;27.832;2023-03-14T10:24:54;99089.16;;;21.15;25.25
9717;BME280;4897;43.570;27.832;2023-03-14T10:27:26;99086.78;;;21.33;25.55
9717;BME280;4897;43.570;27.832;2023-03-14T10:29:55;99053.34;;;21.39;24.82
9717;BME280;4897;43.570;27.832;2023-03-14T10:32:29;99075.81;;;21.20;24.19
9717;BME280;4897;43.570;27.832;2023-03-14T10:35:08;99070.22;;;21.28;23.23
9717;BME280;4897;43.570;27.832;2023-03-14T10:37:48;99053.66;;;21.23;24.02
9717;BME280;4897;43.570;27.832;2023-03-14T10:40:18;99060.84;;;21.37;24.30
9717;BME280;4897;43.570;27.832;2023-03-14T10:42:45;99051.22;;;21.82;23.97
9717;BME280;4897;43.570;27.832;2023-03-14T10:45:28;99040.28;;;22.56;23.90
9717;BME280;4897;43.570;27.832;2023-03-14T10:47:58;99043.00;;;22.49;23.71
9717;BME280;4897;43.570;27.832;2023-03-14T10:50:27;99031.44;;;23.26;23.06
9717;BME280;4897;43.570;27.832;2023-03-14T10:52:56;99021.22;;;24.03;22.43
9717;BME280;4897;43.570;27.832;2023-03-14T10:55:24;99001.31;;;22.62;22.49
9717;BME280;4897;43.570;27.832;2023-03-14T10:57:51;99024.31;;;22.20;23.19
9717;BME280;4897;43.570;27.832;2023-03-14T11:00:21;99005.25;;;22.20;22.32
9717;BME280;4897;43.570;27.832;2023-03-14T11:03:03;98989.66;;;21.81;23.63
9717;BME280;4897;43.570;27.832;2023-03-14T11:05:37;98987.28;;;22.58;22.97
9717;BME280;4897;43.570;27.832;2023-03-14T11:08:11;98972.91;;;23.09;22.63
9717;BME280;4897;43.570;27.832;2023-03-14T11:10:44;98973.91;;;23.34;21.57
9717;BME280;4897;43.570;27.832;2023-03-14T11:13:17;98961.13;;;23.21;22.13
9717;BME280;4897;43.570;27.832;2023-03-14T11:15:58;98963.50;;;23.04;22.81
9717;BME280;4897;43.570;27.832;2023-03-14T11:18:51;98961.97;;;21.17;23.84
9717;BME280;4897;43.570;27.832;2023-03-14T11:21:29;98966.97;;;21.61;23.94
9717;BME280;4897;43.570;27.832;2023-03-14T11:24:25;98956.84;;;22.42;23.17
9717;BME280;4897;43.570;27.832;2023-03-14T11:26:59;98951.66;;;21.54;23.47
9717;BME280;4897;43.570;27.832;2023-03-14T11:29:36;98931.28;;;22.23;23.63
9717;BME280;4897;43.570;27.832;2023-03-14T11:32:12;98916.91;;;22.99;22.64
9717;BME280;4897;43.570;27.832;2023-03-14T11:34:43;98935.69;;;21.98;22.69
9717;BME280;4897;43.570;27.832;2023-03-14T11:37:16;98919.13;;;21.93;22.95
9717;BME280;4897;43.570;27.832;2023-03-14T11:39:54;98925.66;;;21.31;22.29
9717;BME280;4897;43.570;27.832;2023-03-14T11:42:23;98916.50;;;20.64;23.39
9717;BME280;4897;43.570;27.832;2023-03-14T11:44:51;98910.78;;;20.87;23.33
9717;BME280;4897;43.570;27.832;2023-03-14T11:47:23;98894.00;;;21.97;23.02
9717;BME280;4897;43.570;27.832;2023-03-14T11:49:53;98892.16;;;23.01;22.11
9717;BME280;4897;43.570;27.832;2023-03-14T11:52:29;98897.38;;;21.26;21.71
9717;BME280;4897;43.570;27.832;2023-03-14T11:55:02;98903.88;;;21.25;22.59
9717;BME280;4897;43.570;27.832;2023-03-14T11:57:31;98890.19;;;21.79;22.58
9717;BME280;4897;43.570;27.832;2023-03-14T12:00:03;98867.03;;;21.22;22.05
9717;BME280;4897;43.570;27.832;2023-03-14T12:02:43;98885.25;;;21.28;22.33
9717;BME280;4897;43.570;27.832;2023-03-14T12:05:46;98889.97;;;19.83;23.80
9717;BME280;4897;43.570;27.832;2023-03-14T12:08:39;98881.44;;;20.69;23.13
9717;BME280;4897;43.570;27.832;2023-03-14T12:11:17;98858.78;;;21.63;21.98
9717;BME280;4897;43.570;27.832;2023-03-14T12:13:48;98864.22;;;23.05;21.50
9717;BME280;4897;43.570;27.832;2023-03-14T12:16:46;98844.78;;;22.95;21.30
9717;BME280;4897;43.570;27.832;2023-03-14T12:19:37;98832.72;;;23.54;20.55
9717;BME280;4897;43.570;27.832;2023-03-14T12:22:28;98843.19;;;23.19;20.48
9717;BME280;4897;43.570;27.832;2023-03-14T12:25:03;98809.47;;;23.45;20.43
9717;BME280;4897;43.570;27.832;2023-03-14T12:28:14;98828.31;;;22.71;20.40
9717;BME280;4897;43.570;27.832;2023-03-14T12:30:42;98799.91;;;22.34;20.75
9717;BME280;4897;43.570;27.832;2023-03-14T12:33:20;98822.75;;;22.13;20.79
9717;BME280;4897;43.570;27.832;2023-03-14T12:35:49;98819.75;;;22.54;20.42
9717;BME280;4897;43.570;27.832;2023-03-14T12:38:23;98810.94;;;22.52;20.46
9717;BME280;4897;43.570;27.832;2023-03-14T12:40:58;98806.50;;;23.15;20.12
9717;BME280;4897;43.570;27.832;2023-03-14T12:43:30;98773.78;;;22.77;20.55
9717;BME280;4897;43.570;27.832;2023-03-14T12:46:15;98801.06;;;22.71;22.87
9717;BME280;4897;43.570;27.832;2023-03-14T12:48:44;98786.66;;;22.51;23.74
9717;BME280;4897;43.570;27.832;2023-03-14T12:51:13;98781.91;;;21.68;23.66
9717;BME280;4897;43.570;27.832;2023-03-14T12:53:59;98781.88;;;22.33;24.30
9717;BME280;4897;43.570;27.832;2023-03-14T12:57:00;98791.25;;;23.39;23.12
9717;BME280;4897;43.570;27.832;2023-03-14T12:59:32;98777.28;;;22.84;23.36
9717;BME280;4897;43.570;27.832;2023-03-14T13:02:02;98781.91;;;23.22;22.49
9717;BME280;4897;43.570;27.832;2023-03-14T13:04:44;98760.06;;;22.90;22.14
9717;BME280;4897;43.570;27.832;2023-03-14T13:07:12;98764.84;;;23.26;22.66
9717;BME280;4897;43.570;27.832;2023-03-14T13:10:00;98770.94;;;24.09;22.54
9717;BME280;4897;43.570;27.832;2023-03-14T13:12:31;98766.16;;;24.22;20.36
9717;BME280;4897;43.570;27.832;2023-03-14T13:15:11;98725.78;;;23.01;21.55
9717;BME280;4897;43.570;27.832;2023-03-14T13:17:40;98759.19;;;22.59;22.13
9717;BME280;4897;43.570;27.832;2023-03-14T13:20:13;98767.81;;;22.93;22.99
9717;BME280;4897;43.570;27.832;2023-03-14T13:22:46;98761.59;;;23.49;22.90
9717;BME280;4897;43.570;27.832;2023-03-14T13:25:14;98760.56;;;23.68;22.35
9717;BME280;4897;43.570;27.832;2023-03-14T13:27:42;98751.91;;;24.20;21.95